Terminal Aerodrome Forecast
Issued by NWS

Home | Current Version | Previous Version | Text Only | Print | Product List | Glossary On
Versions: 1 2 3 4 5 6 7 8 9 10 11 12 13 14 15 16 17 18
000
FTUS43 KJKL 221100
TAFSME
TAF
KSME 221126Z 2212/2312 12003KT P6SM BKN040
     FM221600 12004KT P6SM SCT050 BKN200
     FM230400 15004KT P6SM VCSH BKN060=

USA.gov is the U.S. government's official web portal to all federal, state and local government web resources and services.